This is the latest recevied weather packets stored in our database for station/object XE2KK-10. If no packets are shown the sender has not sent any weather packets the latest 10 day(s).
| Time | Temp. | Humidity | Pressure | Rain* | Wind** | Luminosity | Snow |
|---|---|---|---|---|---|---|---|
| 1777867753 | 23.89° C | 48% | 1016 hPa | 0 mm | - | 0 W/m² | - |
| 1777867453 | 24.44° C | 48% | 1016 hPa | 0 mm | - | 0 W/m² | - |
| 1777867153 | 24.44° C | 47% | 1016.1 hPa | 0 mm | - | 0 W/m² | - |
| 1777866853 | 24.44° C | 47% | 1016.3 hPa | 0 mm | - | 0 W/m² | - |
| 1777865653 | 24.44° C | 46% | 1016 hPa | 0 mm | - | 0 W/m² | - |
| 1777865353 | 24.44° C | 47% | 1016 hPa | 0 mm | - | 0 W/m² | - |
| 1777865053 | 24.44° C | 46% | 1016.2 hPa | 0 mm | - | 0 W/m² | - |
| 1777864452 | 24.44° C | 46% | 1015.7 hPa | 0 mm | - | 0 W/m² | - |
| 1777844353 | 27.78° C | 41% | 1016.1 hPa | 0 mm | - | 543 W/m² | - |
| 1777843153 | 27.78° C | 42% | 1016.7 hPa | 0 mm | - | 564 W/m² | - |
| 1777842853 | 27.22° C | 43% | 1016.9 hPa | 0 mm | - | 602 W/m² | - |
| 1777840753 | 27.22° C | 43% | 1017.8 hPa | 0 mm | - | 680 W/m² | - |
| 1777840152 | 26.67° C | 44% | 1018.2 hPa | 0 mm | - | 681 W/m² | - |
| 1777839852 | 26.67° C | 44% | 1018 hPa | 0 mm | - | 691 W/m² | - |
| 1777839552 | 26.11° C | 45% | 1018.3 hPa | 0 mm | - | 722 W/m² | - |
| 1777837153 | 25.56° C | 47% | 1018.8 hPa | 0 mm | - | 726 W/m² | - |
| 1777835653 | 24.44° C | 49% | 1019.2 hPa | 0 mm | - | 779 W/m² | - |
| 1777833553 | 22.78° C | 51% | 1020.3 hPa | 0 mm | - | 792 W/m² | - |
| 1777828453 | 22.78° C | 51% | 1022.4 hPa | 0 mm | - | 809 W/m² | - |
| 1777828153 | 22.22° C | 51% | 1022.1 hPa | 0 mm | - | 532 W/m² | - |
| 1777826353 | 22.22° C | 50% | 1022.6 hPa | 0 mm | - | 579 W/m² | - |
| 1777824853 | 21.11° C | 52% | 1022.7 hPa | 0 mm | - | 708 W/m² | - |
| 1777822753 | 19.44° C | 57% | 1022.9 hPa | 0 mm | - | 646 W/m² | - |
| 1777821553 | 20° C | 54% | 1023.1 hPa | 0 mm | - | 437 W/m² | - |
| 1777819753 | 19.44° C | 56% | 1023 hPa | 0 mm | - | 441 W/m² | - |
* Rain latest hour (hover to see other rain measurements)
** Current wind speed in m/s (hover to see current wind gust speed)